Time;durP1;ratioP1;P1;durP2;ratioP2;P2;SDS_P1;SDS_P2;PMS_P1;PMS_P2;Temp;Humidity;BMP_temperature;BMP_pressure;BME280_temperature;BME280_humidity;BME280_pressure;Samples;Min_cycle;Max_cycle;Signal;HPM_P1;HPM_P2
2021/05/26 00:01:53;;;;;;;14.95;7.90;;;8.50;99.90;;;;;;5120507;28;20495;-63
2021/05/26 00:04:21;;;;;;;13.13;7.72;;;8.50;99.90;;;;;;5102342;28;20106;-63
2021/05/26 00:06:49;;;;;;;13.38;8.05;;;8.50;99.90;;;;;;5102547;28;20392;-63
2021/05/26 00:09:17;;;;;;;10.50;7.80;;;8.40;99.90;;;;;;5120573;28;20028;-63
2021/05/26 00:11:45;;;;;;;15.05;8.52;;;8.40;99.90;;;;;;5120589;28;20098;-63
2021/05/26 00:14:12;;;;;;;11.90;7.70;;;8.40;99.90;;;;;;5120330;28;20411;-63
2021/05/26 00:16:39;;;;;;;13.65;8.82;;;8.40;99.90;;;;;;5102134;28;20023;-63
2021/05/26 00:19:08;;;;;;;11.18;7.90;;;8.40;99.90;;;;;;5119976;28;20063;-63
2021/05/26 00:21:35;;;;;;;12.43;8.68;;;8.40;99.90;;;;;;5119985;28;20020;-63
2021/05/26 00:24:03;;;;;;;22.33;9.18;;;8.30;99.90;;;;;;5120488;28;20032;-63
2021/05/26 00:26:30;;;;;;;11.05;7.88;;;8.30;99.90;;;;;;5085523;28;20016;-63
2021/05/26 00:28:58;;;;;;;14.70;9.00;;;8.30;99.90;;;;;;5119509;28;20354;-63
2021/05/26 00:31:29;;;;;;;19.33;9.57;;;8.30;99.90;;;;;;5120518;28;20027;-63
2021/05/26 00:33:57;;;;;;;14.15;9.32;;;8.20;99.90;;;;;;5120100;28;20028;-63
2021/05/26 00:36:25;;;;;;;13.93;9.43;;;8.20;99.90;;;;;;5119679;28;20023;-63
2021/05/26 00:38:53;;;;;;;13.38;8.93;;;8.20;99.90;;;;;;5119995;28;20028;-63
2021/05/26 00:41:21;;;;;;;15.23;8.85;;;8.20;99.90;;;;;;5101769;28;20034;-63
2021/05/26 00:43:49;;;;;;;14.70;9.80;;;8.20;99.90;;;;;;5119919;28;20023;-63
2021/05/26 00:46:17;;;;;;;12.57;8.63;;;8.20;99.90;;;;;;5119570;28;20145;-63
2021/05/26 00:48:45;;;;;;;13.52;9.00;;;8.20;99.90;;;;;;5119688;28;20027;-63
2021/05/26 00:51:13;;;;;;;14.45;8.90;;;8.20;99.90;;;;;;5119421;28;20443;-63
2021/05/26 00:53:41;;;;;;;10.85;7.78;;;8.20;99.90;;;;;;5119630;28;20423;-63
2021/05/26 00:56:08;;;;;;;13.30;8.25;;;8.20;99.90;;;;;;5119354;28;20047;-63
2021/05/26 00:58:37;;;;;;;16.25;8.88;;;8.20;99.90;;;;;;5119547;28;20104;-63
2021/05/26 01:01:04;;;;;;;11.70;8.85;;;8.20;99.90;;;;;;5119892;28;20399;-63
2021/05/26 01:03:33;;;;;;;14.07;9.20;;;8.20;99.90;;;;;;5101579;28;20028;-63
2021/05/26 01:06:00;;;;;;;14.10;9.10;;;8.20;99.90;;;;;;5119762;28;20023;-63
2021/05/26 01:08:28;;;;;;;13.88;9.50;;;8.30;99.90;;;;;;5118673;28;20022;-63
2021/05/26 01:10:56;;;;;;;15.23;10.10;;;8.30;99.90;;;;;;5100373;28;20499;-63
2021/05/26 01:13:25;;;;;;;14.10;9.80;;;8.30;99.90;;;;;;5119120;28;20037;-63
2021/05/26 01:15:53;;;;;;;15.00;9.98;;;8.30;99.90;;;;;;5119124;28;20026;-63
2021/05/26 01:18:34;;;;;;;17.52;9.07;;;8.40;99.90;;;;;;5118902;28;20027;-63
2021/05/26 01:21:05;;;;;;;12.63;8.27;;;8.30;99.90;;;;;;5119451;28;20046;-63
2021/05/26 01:23:33;;;;;;;8.90;6.07;;;8.30;99.90;;;;;;5119322;28;20015;-63
2021/05/26 01:26:02;;;;;;;10.73;5.93;;;8.30;99.90;;;;;;5118889;28;20472;-63
2021/05/26 01:28:31;;;;;;;13.00;5.88;;;8.40;99.90;;;;;;5118875;28;20027;-63
2021/05/26 01:30:59;;;;;;;13.63;6.63;;;8.30;99.90;;;;;;5119285;28;20020;-63
2021/05/26 01:33:27;;;;;;;10.95;6.35;;;8.40;99.90;;;;;;5101379;28;20027;-63
2021/05/26 01:35:55;;;;;;;9.85;5.60;;;8.40;99.90;;;;;;5118922;28;20424;-63
2021/05/26 01:38:23;;;;;;;10.73;6.13;;;8.40;99.90;;;;;;5100459;28;20023;-63
2021/05/26 01:41:01;;;;;;;11.13;6.75;;;8.40;99.90;;;;;;5119165;28;20027;-63
2021/05/26 01:43:30;;;;;;;10.30;5.38;;;8.40;99.90;;;;;;5118581;28;20437;-63
2021/05/26 01:45:59;;;;;;;11.55;6.00;;;8.40;99.90;;;;;;5118775;28;20044;-63
2021/05/26 01:48:27;;;;;;;9.60;6.18;;;8.40;99.90;;;;;;5118533;28;20107;-63
2021/05/26 01:50:55;;;;;;;11.75;6.15;;;8.40;99.90;;;;;;5118068;28;20019;-63
2021/05/26 01:53:22;;;;;;;10.70;6.40;;;8.40;99.90;;;;;;5100318;28;20076;-63
2021/05/26 01:55:50;;;;;;;13.15;6.30;;;8.50;99.90;;;;;;5118035;28;20469;-63
2021/05/26 01:58:17;;;;;;;9.57;6.20;;;8.50;99.90;;;;;;5083477;28;20107;-63
2021/05/26 02:00:46;;;;;;;12.05;7.18;;;8.50;99.90;;;;;;5118838;28;20026;-63
2021/05/26 02:03:14;;;;;;;10.90;7.43;;;8.50;99.90;;;;;;5118265;28;20069;-63
2021/05/26 02:05:42;;;;;;;11.18;7.32;;;8.50;99.90;;;;;;5118954;28;20341;-63
2021/05/26 02:08:10;;;;;;;16.48;7.80;;;8.50;99.90;;;;;;5100541;28;20054;-63
2021/05/26 02:13:24;;;;;;;17.60;6.80;;;8.50;99.90;;;;;;5118645;28;20076;-63
2021/05/26 02:15:52;;;;;;;13.35;7.32;;;8.50;99.90;;;;;;5118369;28;20023;-63
2021/05/26 02:18:20;;;;;;;12.07;7.28;;;8.50;99.90;;;;;;5117942;28;20080;-63
2021/05/26 02:20:48;;;;;;;13.30;6.35;;;8.50;99.90;;;;;;5117309;28;20020;-63
2021/05/26 02:23:15;;;;;;;10.77;6.63;;;8.50;99.90;;;;;;5118025;28;20024;-63
2021/05/26 02:25:43;;;;;;;10.70;6.85;;;8.50;99.90;;;;;;5118508;28;20073;-63
2021/05/26 02:28:10;;;;;;;11.73;6.90;;;8.50;99.90;;;;;;5118105;28;20026;-63
2021/05/26 02:30:38;;;;;;;9.05;6.00;;;8.50;99.90;;;;;;5117906;28;20499;-63
2021/05/26 02:33:07;;;;;;;11.27;6.20;;;8.40;99.90;;;;;;5099505;28;20023;-63
2021/05/26 02:35:35;;;;;;;20.25;7.40;;;8.40;99.90;;;;;;5117809;28;20023;-63
2021/05/26 02:38:02;;;;;;;14.55;7.55;;;8.40;99.90;;;;;;5117926;28;20062;-63
2021/05/26 02:40:33;;;;;;;10.70;6.50;;;8.40;99.90;;;;;;5117734;28;20034;-63
2021/05/26 02:43:03;;;;;;;13.07;6.82;;;8.40;99.90;;;;;;5117983;28;20037;-63
2021/05/26 02:45:32;;;;;;;11.48;5.47;;;8.40;99.90;;;;;;5118296;28;20015;-63
2021/05/26 02:48:00;;;;;;;13.85;6.28;;;8.30;99.90;;;;;;5117896;28;20402;-63
2021/05/26 02:50:27;;;;;;;13.05;6.78;;;8.20;99.90;;;;;;5118153;28;20020;-63
2021/05/26 02:52:55;;;;;;;13.45;6.07;;;8.20;99.90;;;;;;5099656;28;20023;-63
2021/05/26 02:55:24;;;;;;;15.77;6.97;;;8.20;99.90;;;;;;5079381;28;20052;-63
2021/05/26 02:57:52;;;;;;;10.85;7.18;;;8.20;99.90;;;;;;5113400;28;20105;-63
2021/05/26 03:00:21;;;;;;;10.30;6.95;;;8.20;99.90;;;;;;5097194;28;20115;-63
2021/05/26 03:02:50;;;;;;;14.93;6.57;;;8.20;99.90;;;;;;5097273;28;20021;-63
2021/05/26 03:05:20;;;;;;;12.15;6.03;;;8.20;99.90;;;;;;5097183;28;20331;-63
2021/05/26 03:07:48;;;;;;;15.65;7.72;;;8.20;99.90;;;;;;5096263;28;20024;-63
2021/05/26 03:10:17;;;;;;;14.15;6.93;;;8.20;99.90;;;;;;5097414;28;20024;-63
2021/05/26 03:12:45;;;;;;;12.98;6.78;;;8.20;99.90;;;;;;5097091;28;20027;-63
2021/05/26 03:15:15;;;;;;;12.25;6.68;;;8.20;99.90;;;;;;5095310;28;20114;-63
2021/05/26 03:17:43;;;;;;;12.10;6.68;;;8.20;99.90;;;;;;5097261;28;20024;-63
2021/05/26 03:20:13;;;;;;;13.88;5.80;;;8.20;99.90;;;;;;5097161;28;20081;-63
2021/05/26 03:22:41;;;;;;;7.97;5.43;;;8.20;99.90;;;;;;5097051;28;20024;-63
2021/05/26 03:25:11;;;;;;;12.95;5.15;;;8.10;99.90;;;;;;5095939;28;20029;-63
2021/05/26 03:27:39;;;;;;;8.88;5.00;;;8.10;99.90;;;;;;5097128;28;20024;-63
2021/05/26 03:30:12;;;;;;;9.57;4.47;;;8.10;99.90;;;;;;5096991;28;20063;-63
2021/05/26 03:32:41;;;;;;;9.23;4.53;;;8.10;99.90;;;;;;5100818;28;20024;-63
2021/05/26 03:35:12;;;;;;;15.88;5.65;;;8.10;99.90;;;;;;5099457;28;20509;-63
2021/05/26 03:37:39;;;;;;;10.52;4.50;;;8.10;99.90;;;;;;5117234;28;20028;-63
2021/05/26 03:40:11;;;;;;;8.88;4.43;;;8.10;99.90;;;;;;5100985;28;20081;-63
2021/05/26 03:42:39;;;;;;;8.15;4.03;;;8.00;99.90;;;;;;5100541;28;20392;-63
2021/05/26 03:45:08;;;;;;;21.50;4.97;;;8.00;99.90;;;;;;5101013;28;20035;-63
2021/05/26 03:47:36;;;;;;;10.40;4.47;;;8.00;99.90;;;;;;5100580;28;20095;-63
2021/05/26 03:50:05;;;;;;;14.45;4.68;;;8.00;99.90;;;;;;5100922;28;20050;-63
2021/05/26 03:52:33;;;;;;;10.13;4.45;;;8.00;99.90;;;;;;5099287;28;20024;-63
2021/05/26 03:55:01;;;;;;;9.30;4.50;;;8.00;99.90;;;;;;5106443;28;20052;-63
2021/05/26 03:57:29;;;;;;;9.70;3.92;;;8.10;99.90;;;;;;5120213;28;20020;-63
2021/05/26 03:59:56;;;;;;;8.48;4.50;;;8.10;99.90;;;;;;5120449;28;20028;-63
2021/05/26 04:02:24;;;;;;;7.55;4.10;;;8.10;99.90;;;;;;5120760;28;20050;-63
2021/05/26 04:04:53;;;;;;;9.80;4.30;;;8.20;99.90;;;;;;5102898;28;20012;-63
2021/05/26 04:07:21;;;;;;;13.27;3.60;;;8.20;99.90;;;;;;5121276;28;20027;-63
2021/05/26 04:09:49;;;;;;;7.10;4.40;;;8.40;99.90;;;;;;5102222;28;20435;-63
2021/05/26 04:12:18;;;;;;;9.25;3.95;;;8.40;99.90;;;;;;5120711;28;20150;-63
2021/05/26 04:14:46;;;;;;;9.77;3.20;;;8.50;99.90;;;;;;5120341;28;20106;-63
2021/05/26 04:17:13;;;;;;;7.22;3.58;;;8.50;99.90;;;;;;5120189;28;20455;-63
2021/05/26 04:19:41;;;;;;;10.32;3.42;;;8.50;99.90;;;;;;5120068;28;20027;-63
2021/05/26 04:22:12;;;;;;;8.30;3.60;;;8.60;99.90;;;;;;5120114;28;20102;-63
2021/05/26 04:24:39;;;;;;;6.35;2.95;;;8.60;99.90;;;;;;5120620;28;20015;-63
2021/05/26 04:27:07;;;;;;;14.20;3.30;;;8.60;99.90;;;;;;5120457;28;20034;-63
2021/05/26 04:29:34;;;;;;;10.05;4.18;;;8.60;99.90;;;;;;5120566;28;20019;-63
2021/05/26 04:32:02;;;;;;;8.00;3.17;;;8.70;99.90;;;;;;5119950;28;20064;-63
2021/05/26 04:34:30;;;;;;;8.25;3.50;;;8.70;99.90;;;;;;5120438;28;20455;-63
2021/05/26 04:36:58;;;;;;;9.45;4.10;;;8.70;99.90;;;;;;5101108;28;20035;-63
2021/05/26 04:39:26;;;;;;;7.60;3.90;;;8.70;99.90;;;;;;5119670;28;20053;-65
2021/05/26 04:41:54;;;;;;;6.43;3.08;;;8.70;99.90;;;;;;5119006;28;20419;-63
2021/05/26 04:44:26;;;;;;;10.32;3.67;;;8.80;99.90;;;;;;5119497;28;20053;-63
2021/05/26 04:46:54;;;;;;;12.20;3.90;;;8.80;99.90;;;;;;5119729;28;20367;-63
2021/05/26 04:49:22;;;;;;;9.38;4.32;;;8.80;99.90;;;;;;5119497;28;20024;-63
2021/05/26 04:51:50;;;;;;;11.98;3.72;;;8.80;99.90;;;;;;5119572;28;20092;-63
2021/05/26 04:54:17;;;;;;;11.85;3.80;;;8.80;99.90;;;;;;5119224;28;20068;-63
2021/05/26 04:56:45;;;;;;;10.63;3.70;;;8.90;99.90;;;;;;5119570;28;20028;-64
2021/05/26 04:59:13;;;;;;;11.15;3.63;;;9.00;99.90;;;;;;5119255;28;20031;-63
2021/05/26 05:01:41;;;;;;;21.83;10.32;;;9.00;99.90;;;;;;5119328;28;20023;-63
2021/05/26 05:04:08;;;;;;;8.65;3.70;;;9.00;99.90;;;;;;5101446;28;20018;-63
2021/05/26 05:06:36;;;;;;;14.20;3.70;;;9.10;99.90;;;;;;5101155;28;20016;-63
2021/05/26 05:09:06;;;;;;;12.75;4.43;;;9.10;99.90;;;;;;5119326;28;20028;-65
2021/05/26 05:11:34;;;;;;;9.15;2.95;;;9.10;99.90;;;;;;5119226;28;20415;-65
2021/05/26 05:14:02;;;;;;;10.38;3.72;;;9.20;99.90;;;;;;5101605;28;20024;-65
2021/05/26 05:16:29;;;;;;;17.48;3.42;;;9.20;99.90;;;;;;5100360;28;20034;-64
2021/05/26 05:18:56;;;;;;;10.60;3.95;;;9.30;99.90;;;;;;5100752;28;20369;-66
2021/05/26 05:21:24;;;;;;;6.43;3.40;;;9.30;99.90;;;;;;5119202;28;20402;-66
2021/05/26 05:23:52;;;;;;;10.23;4.25;;;9.40;99.90;;;;;;5119250;28;20505;-65
2021/05/26 05:26:20;;;;;;;12.02;3.55;;;9.40;99.90;;;;;;5118812;28;20046;-67
2021/05/26 05:28:48;;;;;;;13.27;3.78;;;9.50;99.90;;;;;;5119034;28;20475;-67
2021/05/26 05:31:16;;;;;;;12.77;4.07;;;9.50;99.90;;;;;;5118642;28;20032;-64
2021/05/26 05:33:44;;;;;;;16.55;5.05;;;9.60;99.90;;;;;;5118973;28;20023;-65
2021/05/26 05:36:12;;;;;;;10.68;4.28;;;9.60;99.90;;;;;;5118550;28;20027;-65
2021/05/26 05:38:39;;;;;;;11.00;4.43;;;9.60;99.90;;;;;;5100488;28;20024;-68
2021/05/26 05:41:08;;;;;;;9.00;4.43;;;9.60;99.90;;;;;;5118352;28;20092;-67
2021/05/26 05:43:36;;;;;;;8.40;4.20;;;9.70;99.90;;;;;;5118663;28;20023;-68
2021/05/26 05:46:04;;;;;;;9.23;4.22;;;9.80;99.90;;;;;;5118508;28;20410;-67
2021/05/26 05:48:33;;;;;;;11.85;4.70;;;9.80;99.90;;;;;;5118344;28;20080;-67
2021/05/26 05:51:01;;;;;;;14.98;5.03;;;9.90;99.90;;;;;;5118323;28;20023;-67
2021/05/26 05:53:28;;;;;;;17.63;5.13;;;10.00;99.90;;;;;;5101018;28;20024;-67
2021/05/26 05:55:58;;;;;;;17.15;4.82;;;10.00;99.90;;;;;;5117657;28;20048;-66
2021/05/26 05:58:26;;;;;;;10.30;4.32;;;10.00;99.90;;;;;;5117745;28;20323;-66
2021/05/26 06:00:54;;;;;;;11.32;4.55;;;10.10;99.90;;;;;;5118302;28;20031;-65
2021/05/26 06:03:22;;;;;;;14.70;4.38;;;10.20;99.90;;;;;;5100311;28;20073;-64
2021/05/26 06:05:51;;;;;;;8.63;4.40;;;10.20;99.90;;;;;;5117943;28;20405;-65
2021/05/26 06:08:18;;;;;;;16.90;4.80;;;10.20;99.90;;;;;;5118021;28;20023;-65
2021/05/26 06:10:45;;;;;;;14.18;5.05;;;10.20;99.90;;;;;;5118140;28;20030;-64
2021/05/26 06:13:13;;;;;;;11.23;4.82;;;10.20;99.90;;;;;;5118371;28;20074;-65
2021/05/26 06:15:46;;;;;;;8.02;4.35;;;10.20;99.90;;;;;;5118305;28;20047;-64
2021/05/26 06:18:18;;;;;;;8.02;4.30;;;10.20;99.90;;;;;;5100543;28;20049;-64
2021/05/26 06:20:47;;;;;;;10.65;4.20;;;10.20;99.90;;;;;;5117977;28;20016;-64
2021/05/26 06:23:15;;;;;;;11.65;4.68;;;10.20;99.90;;;;;;5100038;28;20022;-65
2021/05/26 06:25:43;;;;;;;13.75;5.40;;;10.20;99.90;;;;;;5117869;28;20047;-64
2021/05/26 06:28:10;;;;;;;8.70;4.32;;;10.20;99.90;;;;;;5099818;28;20028;-65
2021/05/26 06:30:38;;;;;;;18.23;4.68;;;10.20;99.90;;;;;;5117881;28;20539;-66
2021/05/26 06:33:06;;;;;;;10.18;4.00;;;10.20;99.90;;;;;;5117682;28;20034;-66
2021/05/26 06:35:33;;;;;;;12.57;4.05;;;10.30;99.90;;;;;;5117705;28;20027;-66
2021/05/26 06:38:00;;;;;;;11.20;3.53;;;10.30;99.90;;;;;;5117115;28;20407;-64
2021/05/26 06:40:28;;;;;;;7.72;3.30;;;10.40;99.90;;;;;;5117808;28;20023;-64
2021/05/26 06:42:56;;;;;;;10.93;4.28;;;10.50;99.90;;;;;;5118368;28;20015;-65
2021/05/26 06:45:23;;;;;;;12.65;4.40;;;10.50;99.90;;;;;;5117766;28;20031;-64
2021/05/26 06:47:51;;;;;;;10.85;3.63;;;10.50;99.90;;;;;;5099965;28;20024;-64
2021/05/26 06:50:21;;;;;;;8.93;4.22;;;10.50;99.90;;;;;;5117589;28;20020;-66
2021/05/26 06:52:50;;;;;;;13.20;4.97;;;10.50;99.90;;;;;;5118013;28;20435;-67
2021/05/26 06:55:19;;;;;;;8.07;3.92;;;10.60;99.90;;;;;;5117393;28;20132;-65
2021/05/26 06:57:47;;;;;;;6.05;3.25;;;10.60;99.90;;;;;;5117762;28;20103;-66
2021/05/26 07:00:15;;;;;;;14.77;4.35;;;10.60;99.90;;;;;;5117560;28;20157;-64
2021/05/26 07:02:43;;;;;;;10.55;3.83;;;10.60;99.90;;;;;;5099816;28;20072;-64
2021/05/26 07:05:11;;;;;;;13.93;3.60;;;10.60;99.90;;;;;;5099637;28;20062;-67
2021/05/26 07:07:39;;;;;;;9.98;3.63;;;10.70;99.90;;;;;;5121078;28;20016;-64
2021/05/26 07:10:07;;;;;;;9.20;3.35;;;10.80;99.90;;;;;;5120476;28;20019;-66
2021/05/26 07:12:36;;;;;;;10.15;3.20;;;10.90;99.90;;;;;;5121035;28;20094;-65
2021/05/26 07:15:04;;;;;;;8.75;3.58;;;11.10;99.90;;;;;;5120482;28;20023;-66
2021/05/26 07:17:32;;;;;;;9.45;3.72;;;11.40;99.90;;;;;;5102817;28;20077;-65
2021/05/26 07:20:02;;;;;;;11.48;3.85;;;11.60;99.90;;;;;;5120277;28;20065;-65
2021/05/26 07:22:30;;;;;;;10.57;3.55;;;11.80;99.90;;;;;;5120358;28;20023;-65
2021/05/26 07:24:57;;;;;;;8.30;3.20;;;11.90;99.90;;;;;;5120170;28;20028;-66
2021/05/26 07:27:25;;;;;;;8.57;3.80;;;12.10;99.90;;;;;;5120241;28;20020;-66
2021/05/26 07:29:54;;;;;;;8.48;3.78;;;12.00;99.90;;;;;;5120993;28;20110;-65
2021/05/26 07:32:22;;;;;;;7.38;3.78;;;12.00;99.90;;;;;;5121103;28;20016;-65
2021/05/26 07:34:50;;;;;;;6.10;3.47;;;11.90;99.90;;;;;;5103033;28;20035;-65
2021/05/26 07:37:17;;;;;;;14.07;3.95;;;11.90;99.90;;;;;;5102832;28;20023;-66
2021/05/26 07:39:45;;;;;;;9.75;3.65;;;12.00;99.90;;;;;;5103015;28;20054;-66
2021/05/26 07:42:14;;;;;;;10.60;3.92;;;12.00;99.90;;;;;;5121105;28;20023;-66
2021/05/26 07:44:42;;;;;;;8.88;3.83;;;12.00;99.90;;;;;;5120861;28;20414;-66
2021/05/26 07:47:09;;;;;;;44.38;8.35;;;12.10;99.90;;;;;;5102566;28;20020;-67
2021/05/26 07:49:36;;;;;;;8.00;4.05;;;12.20;99.90;;;;;;5119897;28;20027;-65
2021/05/26 07:52:07;;;;;;;15.38;5.03;;;12.30;99.90;;;;;;5119634;28;20324;-65
2021/05/26 07:54:36;;;;;;;7.72;3.53;;;12.50;99.90;;;;;;5119907;28;20028;-65
2021/05/26 07:57:05;;;;;;;7.13;3.40;;;12.70;99.90;;;;;;5120069;28;20102;-65
2021/05/26 07:59:33;;;;;;;9.98;3.58;;;12.90;99.90;;;;;;5120372;28;20024;-65
2021/05/26 08:02:00;;;;;;;10.07;3.80;;;13.10;99.90;;;;;;5119511;28;20049;-66
2021/05/26 08:04:28;;;;;;;19.67;3.65;;;13.10;99.90;;;;;;5120310;28;20019;-65
2021/05/26 08:06:56;;;;;;;9.50;3.40;;;13.00;99.90;;;;;;5119452;28;20020;-67
2021/05/26 08:09:23;;;;;;;19.23;3.90;;;13.00;99.90;;;;;;5120041;28;20157;-66
2021/05/26 08:11:51;;;;;;;8.77;2.67;;;13.00;99.90;;;;;;5120278;28;20019;-65
2021/05/26 08:14:19;;;;;;;7.53;3.72;;;13.00;99.90;;;;;;5120618;28;20019;-66
2021/05/26 08:16:47;;;;;;;7.85;2.85;;;13.00;99.90;;;;;;5119333;28;20036;-66
2021/05/26 08:19:15;;;;;;;4.90;2.58;;;13.00;99.90;;;;;;5119831;28;20315;-66
2021/05/26 08:21:43;;;;;;;8.52;2.58;;;13.10;99.90;;;;;;5120004;28;20027;-67
2021/05/26 08:24:12;;;;;;;8.98;2.58;;;13.10;99.90;;;;;;5120568;28;20024;-66
2021/05/26 08:26:40;;;;;;;7.78;3.17;;;13.20;99.90;;;;;;5120019;28;20486;-66
2021/05/26 08:29:07;;;;;;;7.07;2.80;;;13.30;99.90;;;;;;5119167;28;20024;-64
2021/05/26 08:31:36;;;;;;;5.63;2.42;;;13.30;99.90;;;;;;5101094;28;20051;-66
2021/05/26 08:34:04;;;;;;;7.35;2.05;;;13.30;99.90;;;;;;5119099;28;20027;-66
2021/05/26 08:36:32;;;;;;;5.30;1.88;;;13.30;99.90;;;;;;5118875;28;20034;-65
2021/05/26 08:39:00;;;;;;;5.18;1.80;;;13.30;99.90;;;;;;5118774;28;20112;-65
2021/05/26 08:41:28;;;;;;;5.10;1.77;;;13.30;99.90;;;;;;5118716;28;20031;-65
2021/05/26 08:43:57;;;;;;;3.97;1.73;;;13.30;99.90;;;;;;5118864;28;20023;-66
2021/05/26 08:46:28;;;;;;;2.80;1.55;;;13.20;99.90;;;;;;5119251;28;20024;-66
2021/05/26 08:49:01;;;;;;;5.10;1.70;;;13.10;99.90;;;;;;5118701;28;20024;-66
2021/05/26 08:51:30;;;;;;;4.07;1.63;;;13.10;99.90;;;;;;5119391;28;20028;-65
2021/05/26 08:53:58;;;;;;;5.07;1.63;;;13.10;99.90;;;;;;5084918;28;20032;-65
2021/05/26 08:56:26;;;;;;;4.22;1.40;;;13.10;99.90;;;;;;5119275;28;20454;-65
2021/05/26 08:58:55;;;;;;;4.82;1.20;;;13.10;99.90;;;;;;5119721;28;20073;-66
2021/05/26 09:01:23;;;;;;;4.07;1.23;;;13.10;99.90;;;;;;5119247;28;20091;-65
2021/05/26 09:03:52;;;;;;;3.22;1.15;;;13.10;99.90;;;;;;5119381;28;20020;-65
2021/05/26 09:06:20;;;;;;;5.75;1.52;;;13.30;99.90;;;;;;5119127;28;20027;-65
2021/05/26 09:08:52;;;;;;;3.40;1.23;;;13.40;99.90;;;;;;5118835;28;20024;-65
2021/05/26 09:11:46;;;;;;;2.65;1.00;;;13.60;99.90;;;;;;5101327;28;20063;-65
2021/05/26 09:14:14;;;;;;;3.05;1.08;;;13.80;99.90;;;;;;5114519;28;20479;-66
2021/05/26 09:16:42;;;;;;;2.63;1.05;;;13.90;99.90;;;;;;5118085;28;20061;-66
2021/05/26 09:19:11;;;;;;;4.72;2.25;;;14.10;99.90;;;;;;5117964;28;20323;-66
2021/05/26 09:21:45;;;;;;;10.43;2.30;;;14.20;99.80;;;;;;5099851;28;20047;-65
2021/05/26 09:24:22;;;;;;;4.10;1.75;;;14.10;99.90;;;;;;5118060;28;20094;-65
2021/05/26 09:26:55;;;;;;;4.22;1.30;;;14.10;99.90;;;;;;5117843;28;20085;-65
2021/05/26 09:29:27;;;;;;;3.42;0.95;;;14.20;99.90;;;;;;5117469;28;20042;-65
2021/05/26 09:32:27;;;;;;;2.53;0.88;;;14.20;99.90;;;;;;5118771;28;20026;-65
2021/05/26 09:34:56;;;;;;;2.63;0.80;;;14.30;99.90;;;;;;5118682;28;20023;-65
2021/05/26 09:37:38;;;;;;;3.45;0.90;;;14.40;98.90;;;;;;5118677;28;20031;-65
2021/05/26 09:40:10;;;;;;;2.83;0.85;;;14.60;99.20;;;;;;5118513;28;20031;-66
2021/05/26 09:42:39;;;;;;;2.47;1.10;;;14.70;99.10;;;;;;5118403;28;20059;-66
2021/05/26 09:45:27;;;;;;;6.38;0.98;;;14.70;98.40;;;;;;5119146;28;20027;-65
2021/05/26 09:47:56;;;;;;;5.10;1.23;;;14.80;97.80;;;;;;5119045;28;20115;-66
2021/05/26 09:50:36;;;;;;;1.98;0.65;;;14.90;98.50;;;;;;5117886;28;20423;-66
2021/05/26 09:53:19;;;;;;;1.63;0.80;;;14.80;96.60;;;;;;5099732;28;20041;-66
2021/05/26 09:55:48;;;;;;;4.78;1.00;;;14.80;97.40;;;;;;5117171;28;20051;-66
2021/05/26 09:58:17;;;;;;;6.30;1.92;;;14.70;98.90;;;;;;5117317;28;20045;-66
2021/05/26 10:00:50;;;;;;;3.13;0.70;;;14.90;99.00;;;;;;5117944;28;20054;-65
2021/05/26 10:03:18;;;;;;;2.60;0.88;;;15.10;96.80;;;;;;5117198;28;20016;-64
2021/05/26 10:05:46;;;;;;;7.00;1.67;;;15.10;94.80;;;;;;5117267;28;20069;-65
2021/05/26 10:08:15;;;;;;;2.90;0.90;;;15.00;94.90;;;;;;5117157;28;20043;-65
2021/05/26 10:10:48;;;;;;;2.05;0.80;;;14.90;96.20;;;;;;5117122;28;20026;-65
2021/05/26 10:13:20;;;;;;;2.35;0.70;;;15.00;96.10;;;;;;5100155;28;20019;-65
2021/05/26 10:15:58;;;;;;;6.22;0.80;;;15.20;96.10;;;;;;5118114;28;20016;-64
2021/05/26 10:18:26;;;;;;;1.88;0.73;;;15.30;95.00;;;;;;5118159;28;20158;-65
2021/05/26 10:20:54;;;;;;;1.13;0.50;;;15.30;95.40;;;;;;5118050;28;20027;-64
2021/05/26 10:23:23;;;;;;;4.43;0.82;;;15.30;94.40;;;;;;5083863;28;20019;-64
2021/05/26 10:25:53;;;;;;;3.58;0.77;;;15.30;94.00;;;;;;5083393;28;20024;-64
2021/05/26 10:28:33;;;;;;;3.10;0.70;;;15.20;94.30;;;;;;5117727;28;20019;-64
2021/05/26 10:31:03;;;;;;;2.03;0.73;;;14.90;93.90;;;;;;5117491;28;20024;-64
2021/05/26 10:33:46;;;;;;;1.80;0.70;;;14.70;95.30;;;;;;5117614;28;20020;-64
2021/05/26 10:36:14;;;;;;;3.17;0.70;;;14.50;95.40;;;;;;5116970;28;20031;-64
2021/05/26 10:38:59;;;;;;;4.90;0.80;;;14.40;95.90;;;;;;5099540;28;20020;-64
2021/05/26 10:41:47;;;;;;;3.08;0.70;;;14.40;95.90;;;;;;5119376;28;20073;-65
2021/05/26 10:44:15;;;;;;;2.80;0.90;;;14.40;95.60;;;;;;5121319;28;20045;-64
2021/05/26 10:46:45;;;;;;;5.55;0.80;;;14.50;95.70;;;;;;5103893;28;20065;-63
2021/05/26 10:49:14;;;;;;;2.88;0.82;;;14.70;96.40;;;;;;5120824;28;20122;-63
2021/05/26 10:51:56;;;;;;;1.63;0.98;;;14.80;94.70;;;;;;5122190;28;20053;-63
2021/05/26 10:54:42;;;;;;;1.95;1.10;;;14.80;93.80;;;;;;5121595;28;20022;-65
2021/05/26 10:57:10;;;;;;;1.25;0.50;;;14.70;94.30;;;;;;5121721;28;20028;-65
2021/05/26 10:59:39;;;;;;;3.35;0.88;;;14.60;95.10;;;;;;5121630;28;20425;-64
2021/05/26 11:02:09;;;;;;;1.98;0.77;;;14.60;94.50;;;;;;5103858;28;20024;-65
2021/05/26 11:04:38;;;;;;;2.95;0.80;;;14.60;93.60;;;;;;5121684;28;20024;-65
2021/05/26 11:07:24;;;;;;;3.10;0.82;;;14.60;94.60;;;;;;5121611;28;20058;-65
2021/05/26 11:10:05;;;;;;;1.52;0.80;;;14.60;94.30;;;;;;5121277;28;20023;-65
2021/05/26 11:12:57;;;;;;;2.50;0.80;;;14.70;93.60;;;;;;5120574;28;20035;-64
2021/05/26 11:15:43;;;;;;;2.28;1.15;;;14.70;93.30;;;;;;5121163;28;20145;-64
2021/05/26 11:18:28;;;;;;;2.60;0.60;;;14.80;93.40;;;;;;5120628;28;20023;-64
2021/05/26 11:20:56;;;;;;;4.90;0.77;;;14.90;93.10;;;;;;5121025;28;20049;-64
2021/05/26 11:23:24;;;;;;;1.92;0.60;;;15.20;93.40;;;;;;5120451;28;20257;-64
2021/05/26 11:26:02;;;;;;;1.83;0.50;;;15.50;93.70;;;;;;5120730;28;20023;-64
2021/05/26 11:28:35;;;;;;;3.30;0.90;;;16.00;93.30;;;;;;5120563;28;20019;-65
2021/05/26 11:31:08;;;;;;;2.13;0.77;;;16.30;91.40;;;;;;5120882;28;20407;-65
2021/05/26 11:33:36;;;;;;;2.58;0.70;;;16.40;90.50;;;;;;5121158;28;20023;-65
2021/05/26 11:36:06;;;;;;;3.47;0.70;;;16.40;89.90;;;;;;5121177;28;20434;-64
2021/05/26 11:38:34;;;;;;;2.10;0.60;;;16.30;90.70;;;;;;5103760;28;20016;-64
2021/05/26 11:41:17;;;;;;;4.18;0.60;;;16.30;90.40;;;;;;5120952;28;20027;-64
2021/05/26 11:43:45;;;;;;;2.58;0.68;;;16.20;89.00;;;;;;5121534;28;20150;-65
2021/05/26 11:46:12;;;;;;;3.53;0.88;;;15.90;90.00;;;;;;5102859;28;20020;-65
2021/05/26 11:48:47;;;;;;;4.10;0.80;;;15.80;90.80;;;;;;5121484;28;20023;-64
2021/05/26 11:51:25;;;;;;;1.13;0.50;;;15.80;91.20;;;;;;5119842;28;20110;-64
2021/05/26 11:53:58;;;;;;;1.83;0.63;;;16.00;91.30;;;;;;5120153;28;20024;-65
2021/05/26 11:56:26;;;;;;;4.63;1.00;;;16.20;90.10;;;;;;5119524;28;20047;-65
2021/05/26 11:58:55;;;;;;;2.38;0.75;;;16.40;90.30;;;;;;5119519;28;20092;-64
2021/05/26 12:01:31;;;;;;;5.22;0.60;;;16.60;87.50;;;;;;5101892;28;20102;-65
2021/05/26 12:03:59;;;;;;;3.03;0.70;;;16.70;89.50;;;;;;5119526;28;20019;-64
2021/05/26 12:06:27;;;;;;;1.52;0.80;;;16.80;90.40;;;;;;5119465;28;20028;-64
2021/05/26 12:08:55;;;;;;;2.72;0.65;;;17.00;89.70;;;;;;5119934;28;20028;-64
2021/05/26 12:11:23;;;;;;;1.85;0.65;;;17.10;89.50;;;;;;5120427;28;20403;-64
2021/05/26 12:13:51;;;;;;;3.08;0.70;;;17.20;83.90;;;;;;5120978;28;20059;-64
2021/05/26 12:16:21;;;;;;;1.92;0.70;;;17.30;85.90;;;;;;5120860;28;20027;-66
2021/05/26 12:19:00;;;;;;;1.77;0.60;;;17.40;84.50;;;;;;5120237;28;20055;-64
2021/05/26 12:21:30;;;;;;;3.03;0.60;;;17.50;85.50;;;;;;5102123;28;20024;-65
2021/05/26 12:24:14;;;;;;;;;;;17.40;85.00;;;;;;5120924;28;20023;-64
2021/05/26 12:26:47;;;;;;;3.03;0.60;;;17.40;86.60;;;;;;5120417;28;20219;-64
2021/05/26 12:29:25;;;;;;;2.60;0.70;;;17.30;86.70;;;;;;5120376;28;20023;-64
2021/05/26 12:31:53;;;;;;;1.25;0.60;;;17.30;87.00;;;;;;5101096;28;20076;-64
2021/05/26 12:34:23;;;;;;;0.90;0.50;;;17.20;85.30;;;;;;5119306;28;20363;-64
2021/05/26 12:36:56;;;;;;;2.13;0.63;;;17.20;84.30;;;;;;5118793;28;20051;-65
2021/05/26 12:39:24;;;;;;;2.45;0.80;;;17.10;82.50;;;;;;5119523;28;20032;-65
2021/05/26 12:41:53;;;;;;;2.22;0.80;;;17.00;82.60;;;;;;5100876;28;20026;-64
2021/05/26 12:44:23;;;;;;;4.13;0.82;;;17.30;85.30;;;;;;5084517;28;20024;-64
2021/05/26 12:46:52;;;;;;;1.70;0.60;;;17.50;81.90;;;;;;5119382;28;20027;-64
2021/05/26 12:49:32;;;;;;;1.60;0.60;;;17.50;83.70;;;;;;5118561;28;20111;-68
2021/05/26 12:52:12;;;;;;;1.77;0.60;;;17.50;83.90;;;;;;5118683;28;20427;-64
2021/05/26 12:54:48;;;;;;;1.27;0.50;;;17.40;81.30;;;;;;5101150;28;20024;-67
2021/05/26 12:57:17;;;;;;;;;;;17.20;83.10;;;;;;5101820;28;20028;-66
2021/05/26 12:59:51;;;;;;;1.73;0.65;;;17.10;83.00;;;;;;5119693;28;20010;-66
2021/05/26 13:02:19;;;;;;;2.17;0.80;;;17.40;80.90;;;;;;5119375;28;20048;-66
2021/05/26 13:04:48;;;;;;;3.58;0.60;;;17.60;82.20;;;;;;5118752;28;20133;-66